createdAt,value
2022-08-05T00:08:34.910Z,97354.55
2022-08-05T00:12:56.562Z,97354.42
2022-08-05T00:17:19.372Z,97351.34
2022-08-05T00:32:48.173Z,97351.41
2022-08-05T00:37:09.143Z,97350.84
2022-08-05T00:43:49.971Z,97345.81
2022-08-05T00:47:57.103Z,97344.06
2022-08-05T00:52:31.526Z,97348.27
2022-08-05T00:56:22.902Z,97339.27
2022-08-05T01:11:50.606Z,97337.86
2022-08-05T01:39:06.797Z,97335.48
2022-08-05T01:58:45.614Z,97337.02
2022-08-05T02:03:48.606Z,97336.02
2022-08-05T02:03:52.702Z,97335.51
2022-08-05T02:06:37.793Z,97333.45
2022-08-05T02:10:28.580Z,97324.30
2022-08-05T02:22:48.701Z,97319.52
2022-08-05T02:26:17.356Z,97315.93
2022-08-05T02:30:38.240Z,97315.10
2022-08-05T02:40:51.710Z,97316.58
2022-08-05T02:48:58.003Z,97310.30
2022-08-05T03:04:03.449Z,97308.79
2022-08-05T03:18:55.507Z,97323.52
2022-08-05T03:22:32.470Z,97321.15
2022-08-05T03:28:04.531Z,97321.98
2022-08-05T03:30:08.083Z,97319.63
2022-08-05T03:44:29.004Z,97322.41
2022-08-05T03:46:03.624Z,97324.13
2022-08-05T03:55:52.187Z,97325.58
2022-08-05T04:13:09.161Z,97324.40
2022-08-05T04:22:05.253Z,97313.06
2022-08-05T04:29:46.383Z,97315.58
2022-08-05T04:34:17.954Z,97321.00
2022-08-05T05:31:02.785Z,97308.52
2022-08-05T05:55:21.995Z,97298.89
2022-08-05T05:58:34.909Z,97299.71
2022-08-05T06:06:31.072Z,97303.52
2022-08-05T06:10:16.468Z,97301.20
2022-08-05T06:21:51.077Z,97312.41
2022-08-05T06:53:39.173Z,97313.36
2022-08-05T07:01:08.994Z,97316.94
2022-08-05T07:04:52.852Z,97321.04
2022-08-05T07:24:24.729Z,97311.33
2022-08-05T07:56:59.969Z,97306.64
2022-08-05T08:13:42.987Z,97307.06
2022-08-05T08:16:34.490Z,97304.61
2022-08-05T08:20:10.054Z,97299.16
2022-08-05T08:22:00.499Z,97297.13
2022-08-05T08:24:51.537Z,97294.92
2022-08-05T08:27:16.369Z,97291.75
2022-08-05T08:30:04.623Z,97287.58
2022-08-05T08:32:34.223Z,97289.73
2022-08-05T08:35:13.450Z,97288.55
2022-08-05T08:37:45.155Z,97288.29
2022-08-05T08:40:13.228Z,97287.98
2022-08-05T08:42:46.785Z,97285.33
2022-08-05T08:45:26.658Z,97283.46
2022-08-05T08:48:10.422Z,97286.73
2022-08-05T08:51:03.701Z,97277.81
2022-08-05T08:53:40.239Z,97275.52
2022-08-05T08:56:13.150Z,97277.66
2022-08-05T08:58:44.496Z,97271.77
2022-08-05T09:01:18.404Z,97272.69
2022-08-05T09:03:55.437Z,97271.60
2022-08-05T09:06:28.047Z,97267.39
2022-08-05T09:09:00.243Z,97269.27
2022-08-05T09:11:52.710Z,97263.77
2022-08-05T09:14:58.319Z,97260.18
2022-08-05T09:17:05.437Z,97253.01
2022-08-05T09:20:01.997Z,97252.41
2022-08-05T09:22:32.004Z,97249.73
2022-08-05T09:25:14.019Z,97250.88
2022-08-05T09:28:03.962Z,97250.80
2022-08-05T09:30:35.186Z,97244.36
2022-08-05T09:33:05.040Z,97242.11
2022-08-05T09:35:32.970Z,97240.29
2022-08-05T09:38:16.340Z,97240.50
2022-08-05T09:40:52.182Z,97235.44
2022-08-05T09:43:41.810Z,97235.13
2022-08-05T09:46:27.765Z,97234.63
2022-08-05T09:49:08.461Z,97234.55
2022-08-05T09:51:48.915Z,97232.64
2022-08-05T09:54:30.612Z,97229.52
2022-08-05T09:57:01.818Z,97234.08
2022-08-05T09:59:34.905Z,97234.05
2022-08-05T10:02:05.479Z,97228.93
2022-08-05T10:04:35.295Z,97225.39
2022-08-05T10:07:19.590Z,97220.76
2022-08-05T10:10:14.092Z,97224.42
2022-08-05T10:12:49.980Z,97224.67
2022-08-05T10:15:20.766Z,97219.90
2022-08-05T10:18:04.525Z,97213.05
2022-08-05T10:20:34.483Z,97207.98
2022-08-05T10:23:02.429Z,97209.61
2022-08-05T10:25:31.363Z,97208.73
2022-08-05T10:28:12.846Z,97203.35
2022-08-05T10:32:51.963Z,97199.48
2022-08-05T10:33:35.250Z,97189.37
2022-08-05T10:36:05.135Z,97189.38
2022-08-05T10:38:35.105Z,97191.07
2022-08-05T10:41:09.734Z,97190.30
2022-08-05T10:43:41.751Z,97187.79
2022-08-05T10:46:11.831Z,97186.67
2022-08-05T10:48:56.426Z,97187.79
2022-08-05T10:51:28.869Z,97183.08
2022-08-05T10:54:00.736Z,97178.60
2022-08-05T10:56:31.352Z,97174.01
2022-08-05T10:59:11.489Z,97175.45
2022-08-05T11:01:55.662Z,97174.18
2022-08-05T11:04:42.661Z,97178.06
2022-08-05T11:07:13.041Z,97180.98
2022-08-05T11:10:03.765Z,97178.30
2022-08-05T11:12:41.244Z,97174.91
2022-08-05T11:15:20.321Z,97175.98
2022-08-05T11:18:00.215Z,97172.95
2022-08-05T11:20:31.659Z,97174.79
2022-08-05T11:23:05.926Z,97175.80
2022-08-05T11:26:05.554Z,97170.12
2022-08-05T11:28:27.919Z,97169.69
2022-08-05T11:30:55.918Z,97164.19
2022-08-05T11:33:44.204Z,97168.48
2022-08-05T11:36:34.229Z,97158.17
2022-08-05T11:39:09.274Z,97157.51
2022-08-05T11:42:00.939Z,97158.02
2022-08-05T11:44:52.780Z,97152.80
2022-08-05T11:47:22.096Z,97146.18
2022-08-05T11:50:09.143Z,97151.38
2022-08-05T11:52:37.378Z,97146.51
2022-08-05T11:55:07.401Z,97150.59
2022-08-05T11:58:08.718Z,97154.44
2022-08-05T12:00:31.348Z,97155.48
2022-08-05T12:03:15.145Z,97148.32
2022-08-05T12:05:43.742Z,97147.44
2022-08-05T12:08:11.882Z,97144.10
2022-08-05T12:10:48.774Z,97141.67
2022-08-05T12:13:28.080Z,97138.89
2022-08-05T12:16:15.060Z,97138.65
2022-08-05T12:18:49.305Z,97139.61
2022-08-05T12:21:26.769Z,97136.17
2022-08-05T12:23:59.905Z,97130.38
2022-08-05T12:26:38.904Z,97128.81
2022-08-05T12:29:09.627Z,97122.95
2022-08-05T12:31:46.193Z,97118.80
2022-08-05T12:34:28.903Z,97121.36
2022-08-05T12:37:17.496Z,97113.89
2022-08-05T12:39:51.542Z,97107.56
2022-08-05T12:42:20.926Z,97102.64
2022-08-05T12:44:48.954Z,97098.34
2022-08-05T12:47:30.640Z,97097.48
2022-08-05T12:50:03.753Z,97094.51
2022-08-05T12:52:39.365Z,97096.64
2022-08-05T12:55:22.166Z,97095.10
2022-08-05T12:58:49.931Z,97092.93
2022-08-05T13:02:00.764Z,97091.96
2022-08-05T13:03:41.511Z,97092.02
2022-08-05T13:06:16.167Z,97086.42
2022-08-05T13:08:51.536Z,97086.54
2022-08-05T13:11:46.955Z,97084.98
2022-08-05T13:14:15.980Z,97086.36
2022-08-05T13:16:49.148Z,97083.40
2022-08-05T13:19:17.453Z,97080.45
2022-08-05T13:21:52.522Z,97080.08
2022-08-05T13:24:36.481Z,97078.16
2022-08-05T13:27:17.093Z,97075.84
2022-08-05T13:30:31.547Z,97074.21
2022-08-05T13:32:42.030Z,97071.02
2022-08-05T13:35:15.534Z,97071.94
2022-08-05T13:37:55.569Z,97066.64
2022-08-05T13:40:36.634Z,97069.71
2022-08-05T13:43:15.146Z,97073.02
2022-08-05T13:45:52.878Z,97072.56
2022-08-05T13:48:58.835Z,97071.68
2022-08-05T13:51:11.290Z,97065.05
2022-08-05T13:53:48.253Z,97059.70
2022-08-05T13:56:18.899Z,97054.44
2022-08-05T13:58:52.928Z,97055.89
2022-08-05T14:01:27.471Z,97053.31
2022-08-05T14:04:26.473Z,97049.27
2022-08-05T14:06:58.805Z,97048.40
2022-08-05T14:09:45.947Z,97043.61
2022-08-05T14:12:17.419Z,97039.66
2022-08-05T14:14:46.440Z,97040.42
2022-08-05T14:17:17.715Z,97037.89
2022-08-05T14:19:55.270Z,97035.63
2022-08-05T14:22:25.103Z,97033.79
2022-08-05T14:24:58.492Z,97033.23
2022-08-05T14:27:28.351Z,97031.55
2022-08-05T14:29:56.485Z,97028.83
2022-08-05T14:32:28.029Z,97030.67
2022-08-05T14:34:56.772Z,97028.99
2022-08-05T14:37:45.332Z,97027.70
2022-08-05T14:40:14.054Z,97026.76
2022-08-05T14:42:42.355Z,97024.20
2022-08-05T14:45:10.841Z,97021.04
2022-08-05T14:47:58.389Z,97022.38
2022-08-05T14:50:26.543Z,97018.93
2022-08-05T14:52:57.869Z,97019.03
2022-08-05T14:55:38.493Z,97016.79
2022-08-05T14:58:11.880Z,97012.38
2022-08-05T15:00:58.620Z,97013.11
2022-08-05T15:03:33.547Z,97007.31
2022-08-05T15:06:15.146Z,96997.70
2022-08-05T15:08:57.972Z,96995.64
2022-08-05T15:11:51.239Z,96995.40
2022-08-05T15:14:33.243Z,96994.84
2022-08-05T15:17:04.722Z,96994.11
2022-08-05T15:19:32.670Z,96990.40
2022-08-05T15:22:01.420Z,96989.83
2022-08-05T15:24:29.627Z,96988.79
2022-08-05T15:26:58.936Z,96984.14
2022-08-05T15:29:30.107Z,96982.73
2022-08-05T15:32:02.347Z,96980.90
2022-08-05T15:34:33.443Z,96976.63
2022-08-05T15:37:06.955Z,96978.52
2022-08-05T15:40:58.610Z,96978.38
2022-08-05T15:42:54.521Z,96981.48
2022-08-05T15:45:18.963Z,96982.86
2022-08-05T15:48:06.907Z,96974.48
2022-08-05T15:50:34.948Z,96974.39
2022-08-05T15:53:05.134Z,96979.46
2022-08-05T15:56:02.116Z,96980.52
2022-08-05T15:58:23.166Z,96971.98
2022-08-05T16:01:04.372Z,96970.72
2022-08-05T16:03:41.094Z,96972.35
2022-08-05T16:06:11.156Z,96969.05
2022-08-05T16:08:39.930Z,96972.73
2022-08-05T16:11:10.503Z,96972.58
2022-08-05T16:13:38.440Z,96973.69
2022-08-05T16:16:06.599Z,96970.98
2022-08-05T16:18:34.518Z,96972.77
2022-08-05T16:21:20.587Z,96971.20
2022-08-05T16:23:54.502Z,96972.01
2022-08-05T16:26:26.193Z,96973.55
2022-08-05T16:28:55.581Z,96969.16
2022-08-05T16:31:23.547Z,96969.60
2022-08-05T16:33:52.405Z,96973.19
2022-08-05T16:36:23.757Z,96972.17
2022-08-05T16:38:54.794Z,96973.88
2022-08-05T16:42:14.084Z,96974.79
2022-08-05T16:44:12.208Z,96978.16
2022-08-05T16:46:40.924Z,96980.73
2022-08-05T16:49:11.265Z,96978.23
2022-08-05T16:51:51.145Z,96975.30
2022-08-05T16:54:26.233Z,96972.80
2022-08-05T16:56:56.754Z,96971.36
2022-08-05T16:59:24.599Z,96972.38
2022-08-05T17:01:56.357Z,96973.50
2022-08-05T17:04:26.119Z,96977.08
2022-08-05T17:07:01.483Z,96979.58
2022-08-05T17:09:30.020Z,96982.13
2022-08-05T17:11:59.261Z,96982.98
2022-08-05T17:14:36.810Z,96983.01
2022-08-05T17:17:14.316Z,96985.42
2022-08-05T17:19:45.798Z,96987.50
2022-08-05T17:22:24.489Z,96987.06
2022-08-05T17:24:57.133Z,96998.48
2022-08-05T17:27:33.607Z,96994.91
2022-08-05T17:30:04.533Z,96998.08
2022-08-05T17:32:42.012Z,96999.61
2022-08-05T17:35:12.297Z,97000.38
2022-08-05T17:37:45.462Z,97000.10
2022-08-05T17:40:17.505Z,97000.91
2022-08-05T17:42:50.543Z,97001.15
2022-08-05T17:45:21.890Z,97003.08
2022-08-05T17:47:55.769Z,97005.31
2022-08-05T17:50:28.061Z,97002.52
2022-08-05T17:52:59.264Z,97004.89
2022-08-05T17:55:38.148Z,97008.37
2022-08-05T17:58:10.992Z,97007.98
2022-08-05T18:00:47.477Z,97009.58
2022-08-05T18:06:11.915Z,97016.94
2022-08-05T18:08:44.733Z,97016.39
2022-08-05T18:11:23.411Z,97019.70
2022-08-05T18:13:54.628Z,97029.63
2022-08-05T18:16:23.430Z,97031.58
2022-08-05T18:18:51.409Z,97036.59
2022-08-05T18:21:22.722Z,97035.32
2022-08-05T18:23:54.500Z,97036.02
2022-08-05T18:26:29.239Z,97035.89
2022-08-05T18:28:58.262Z,97035.08
2022-08-05T18:31:33.016Z,97033.14
2022-08-05T18:34:05.845Z,97037.14
2022-08-05T18:36:35.523Z,97039.16
2022-08-05T18:39:22.323Z,97039.08
2022-08-05T18:42:02.195Z,97047.47
2022-08-05T18:44:48.949Z,97044.04
2022-08-05T18:47:22.901Z,97044.51
2022-08-05T18:50:15.450Z,97045.53
2022-08-05T18:52:51.348Z,97050.23
2022-08-05T18:55:21.535Z,97050.02
2022-08-05T18:57:53.913Z,97055.51
2022-08-05T19:00:28.615Z,97057.91
2022-08-05T19:03:03.292Z,97058.50
2022-08-05T19:06:11.484Z,97066.27
2022-08-05T19:08:30.577Z,97069.78
2022-08-05T19:10:59.662Z,97069.63
2022-08-05T19:13:35.939Z,97079.05
2022-08-05T19:16:24.536Z,97081.10
2022-08-05T19:18:56.444Z,97085.34
2022-08-05T19:21:27.441Z,97087.62
2022-08-05T19:24:06.959Z,97091.56
2022-08-05T19:26:54.323Z,97088.16
2022-08-05T19:29:26.827Z,97083.82
2022-08-05T19:32:05.307Z,97084.08
2022-08-05T19:34:36.636Z,97085.66
2022-08-05T19:37:04.552Z,97080.73
2022-08-05T19:39:32.453Z,97076.75
2022-08-05T19:42:15.338Z,97076.04
2022-08-05T19:44:45.006Z,97071.06
2022-08-05T19:47:16.320Z,97069.61
2022-08-05T19:49:45.248Z,97067.78
2022-08-05T19:52:30.373Z,97063.41
2022-08-05T19:55:06.857Z,97064.40
2022-08-05T19:58:00.490Z,97068.35
2022-08-05T20:00:24.012Z,97068.73
2022-08-05T20:02:52.475Z,97068.09
2022-08-05T20:05:24.100Z,97068.08
2022-08-05T20:07:57.802Z,97067.83
2022-08-05T20:10:27.118Z,97071.66
2022-08-05T20:12:55.481Z,97069.02
2022-08-05T20:15:50.804Z,97071.19
2022-08-05T20:18:33.994Z,97076.11
2022-08-05T20:21:00.049Z,97079.84
2022-08-05T20:23:39.357Z,97076.48
2022-08-05T20:26:17.527Z,97077.00
2022-08-05T20:28:48.872Z,97075.27
2022-08-05T20:31:21.416Z,97073.70
2022-08-05T20:33:50.155Z,97076.44
2022-08-05T20:36:18.987Z,97073.69
2022-08-05T20:38:54.537Z,97073.73
2022-08-05T20:41:44.628Z,97073.45
2022-08-05T20:44:19.123Z,97074.64
2022-08-05T20:47:03.284Z,97070.89
2022-08-05T20:49:35.532Z,97068.74
2022-08-05T20:52:06.395Z,97070.00
2022-08-05T20:54:55.087Z,97069.09
2022-08-05T20:57:42.662Z,97068.73
2022-08-05T21:00:35.020Z,97067.27
2022-08-05T21:03:07.031Z,97069.39
2022-08-05T21:05:47.467Z,97073.15
2022-08-05T21:08:32.833Z,97063.86
2022-08-05T21:11:12.975Z,97073.23
2022-08-05T21:14:00.957Z,97067.81
2022-08-05T21:16:30.778Z,97068.36
2022-08-05T21:19:00.921Z,97066.47
2022-08-05T21:21:39.830Z,97068.67
2022-08-05T21:24:13.562Z,97068.77
2022-08-05T21:26:50.508Z,97067.67
2022-08-05T21:29:31.403Z,97071.09
2022-08-05T21:32:01.418Z,97071.45
2022-08-05T21:34:31.450Z,97075.42
2022-08-05T21:37:00.386Z,97073.08
2022-08-05T21:39:28.300Z,97075.59
2022-08-05T21:42:01.653Z,97077.66
2022-08-05T21:44:31.721Z,97078.86
2022-08-05T21:47:00.337Z,97074.70
2022-08-05T21:49:48.435Z,97076.62
2022-08-05T21:52:28.047Z,97070.58
2022-08-05T21:54:57.735Z,97069.39
2022-08-05T21:57:35.752Z,97074.64
2022-08-05T22:00:07.086Z,97073.33
2022-08-05T22:02:43.150Z,97072.61
2022-08-05T22:05:12.003Z,97070.70
2022-08-05T22:07:58.417Z,97072.58
2022-08-05T22:10:28.326Z,97076.55
2022-08-05T22:12:57.214Z,97072.41
2022-08-05T22:16:04.734Z,97071.86
2022-08-05T22:18:14.425Z,97073.48
2022-08-05T22:20:44.101Z,97076.47
2022-08-05T22:24:02.922Z,97080.91
2022-08-05T22:26:36.733Z,97079.42
2022-08-05T22:29:05.328Z,97078.05
2022-08-05T22:31:44.870Z,97078.33
2022-08-05T22:34:25.575Z,97079.84
2022-08-05T22:36:58.394Z,97077.61
2022-08-05T22:39:32.515Z,97072.55
2022-08-05T22:42:10.116Z,97062.79
2022-08-05T22:44:40.964Z,97064.60
2022-08-05T22:47:15.056Z,97063.42
2022-08-05T22:50:19.930Z,97065.01
2022-08-05T22:52:48.288Z,97065.72
2022-08-05T22:55:19.274Z,97066.02
2022-08-05T22:57:49.928Z,97064.67
2022-08-05T23:00:21.001Z,97066.89
2022-08-05T23:02:50.576Z,97067.48
2022-08-05T23:05:19.223Z,97071.61
2022-08-05T23:07:50.999Z,97070.06
2022-08-05T23:10:20.672Z,97069.77
2022-08-05T23:12:54.688Z,97070.81
2022-08-05T23:15:30.049Z,97071.55
2022-08-05T23:18:06.190Z,97069.79
2022-08-05T23:20:39.835Z,97066.67
2022-08-05T23:23:08.827Z,97068.98
2022-08-05T23:25:51.447Z,97068.09
2022-08-05T23:28:28.556Z,97066.55
2022-08-05T23:31:16.411Z,97065.09
2022-08-05T23:34:05.545Z,97066.73
2022-08-05T23:36:39.791Z,97060.55
2022-08-05T23:39:09.882Z,97058.35
2022-08-05T23:41:48.654Z,97056.71
2022-08-05T23:44:17.089Z,97057.39
2022-08-05T23:46:47.796Z,97062.34
2022-08-05T23:49:17.542Z,97059.14
2022-08-05T23:52:11.895Z,97055.86
2022-08-05T23:54:39.943Z,97056.29
2022-08-05T23:57:08.452Z,97053.23
